sensor_id;sensor_type;location;lat;lon;timestamp;temperature;humidity
74101;DHT22;62462;52.530;21.682;2022-08-11T00:01:51;17.30;58.80
74101;DHT22;62462;52.530;21.682;2022-08-11T00:04:20;17.20;58.80
74101;DHT22;62462;52.530;21.682;2022-08-11T00:06:47;17.20;58.80
74101;DHT22;62462;52.530;21.682;2022-08-11T00:09:19;17.20;58.80
74101;DHT22;62462;52.530;21.682;2022-08-11T00:11:53;17.20;58.80
74101;DHT22;62462;52.530;21.682;2022-08-11T00:14:27;17.10;59.00
74101;DHT22;62462;52.530;21.682;2022-08-11T00:17:05;17.00;59.30
74101;DHT22;62462;52.530;21.682;2022-08-11T00:19:34;17.00;59.40
74101;DHT22;62462;52.530;21.682;2022-08-11T00:22:02;17.00;59.10
74101;DHT22;62462;52.530;21.682;2022-08-11T00:24:33;17.00;59.00
74101;DHT22;62462;52.530;21.682;2022-08-11T00:27:00;17.00;58.80
74101;DHT22;62462;52.530;21.682;2022-08-11T00:29:26;16.90;58.90
74101;DHT22;62462;52.530;21.682;2022-08-11T00:31:53;16.80;59.30
74101;DHT22;62462;52.530;21.682;2022-08-11T00:34:23;16.70;59.50
74101;DHT22;62462;52.530;21.682;2022-08-11T00:36:54;16.70;59.50
74101;DHT22;62462;52.530;21.682;2022-08-11T00:39:23;16.60;60.70
74101;DHT22;62462;52.530;21.682;2022-08-11T00:50:37;16.70;59.10
74101;DHT22;62462;52.530;21.682;2022-08-11T01:08:26;16.20;59.60
74101;DHT22;62462;52.530;21.682;2022-08-11T01:19:34;16.20;59.80
74101;DHT22;62462;52.530;21.682;2022-08-11T01:39:42;16.10;59.60
74101;DHT22;62462;52.530;21.682;2022-08-11T01:42:38;16.00;59.60
74101;DHT22;62462;52.530;21.682;2022-08-11T01:45:49;16.00;60.00
74101;DHT22;62462;52.530;21.682;2022-08-11T01:54:32;16.00;59.90
74101;DHT22;62462;52.530;21.682;2022-08-11T01:57:26;16.00;60.10
74101;DHT22;62462;52.530;21.682;2022-08-11T02:11:34;15.90;59.70
74101;DHT22;62462;52.530;21.682;2022-08-11T02:17:01;15.90;59.60
74101;DHT22;62462;52.530;21.682;2022-08-11T02:19:59;15.90;59.60
74101;DHT22;62462;52.530;21.682;2022-08-11T02:23:05;15.80;59.70
74101;DHT22;62462;52.530;21.682;2022-08-11T02:35:09;15.60;60.00
74101;DHT22;62462;52.530;21.682;2022-08-11T02:40:24;15.20;61.10
74101;DHT22;62462;52.530;21.682;2022-08-11T02:43:22;15.20;61.50
74101;DHT22;62462;52.530;21.682;2022-08-11T02:46:01;15.30;61.30
74101;DHT22;62462;52.530;21.682;2022-08-11T02:57:26;15.50;60.30
74101;DHT22;62462;52.530;21.682;2022-08-11T03:00:11;15.50;60.30
74101;DHT22;62462;52.530;21.682;2022-08-11T03:03:12;15.50;60.20
74101;DHT22;62462;52.530;21.682;2022-08-11T03:08:49;15.50;60.00
74101;DHT22;62462;52.530;21.682;2022-08-11T03:21:01;15.40;59.90
74101;DHT22;62462;52.530;21.682;2022-08-11T03:25:59;15.40;59.90
74101;DHT22;62462;52.530;21.682;2022-08-11T03:32:04;15.30;59.70
74101;DHT22;62462;52.530;21.682;2022-08-11T03:34:32;15.20;59.90
74101;DHT22;62462;52.530;21.682;2022-08-11T03:37:30;15.20;60.10
74101;DHT22;62462;52.530;21.682;2022-08-11T03:43:56;15.20;60.00
74101;DHT22;62462;52.530;21.682;2022-08-11T03:51:54;15.00;61.00
74101;DHT22;62462;52.530;21.682;2022-08-11T04:03:29;15.20;60.90
74101;DHT22;62462;52.530;21.682;2022-08-11T04:16:15;15.40;60.50
74101;DHT22;62462;52.530;21.682;2022-08-11T04:19:10;15.50;60.40
74101;DHT22;62462;52.530;21.682;2022-08-11T04:21:56;15.50;60.40
74101;DHT22;62462;52.530;21.682;2022-08-11T04:54:03;15.90;60.90
74101;DHT22;62462;52.530;21.682;2022-08-11T04:56:50;16.00;60.90
74101;DHT22;62462;52.530;21.682;2022-08-11T05:00:06;16.00;60.90
74101;DHT22;62462;52.530;21.682;2022-08-11T05:13:44;16.10;61.40
74101;DHT22;62462;52.530;21.682;2022-08-11T05:16:41;16.10;61.80
74101;DHT22;62462;52.530;21.682;2022-08-11T05:19:27;16.10;62.10
74101;DHT22;62462;52.530;21.682;2022-08-11T05:22:12;16.10;62.40
74101;DHT22;62462;52.530;21.682;2022-08-11T05:25:09;16.10;62.40
74101;DHT22;62462;52.530;21.682;2022-08-11T05:28:10;16.20;62.50
74101;DHT22;62462;52.530;21.682;2022-08-11T05:31:14;16.30;62.20
74101;DHT22;62462;52.530;21.682;2022-08-11T05:34:09;16.50;62.10
74101;DHT22;62462;52.530;21.682;2022-08-11T05:37:02;16.60;62.30
74101;DHT22;62462;52.530;21.682;2022-08-11T05:39:33;16.70;63.20
74101;DHT22;62462;52.530;21.682;2022-08-11T05:42:24;17.00;61.90
74101;DHT22;62462;52.530;21.682;2022-08-11T05:45:12;17.20;61.70
74101;DHT22;62462;52.530;21.682;2022-08-11T05:47:58;17.40;61.40
74101;DHT22;62462;52.530;21.682;2022-08-11T05:50:54;17.60;61.20
74101;DHT22;62462;52.530;21.682;2022-08-11T05:53:46;17.60;61.00
74101;DHT22;62462;52.530;21.682;2022-08-11T05:56:32;17.70;61.10
74101;DHT22;62462;52.530;21.682;2022-08-11T05:58:59;17.70;61.00
74101;DHT22;62462;52.530;21.682;2022-08-11T06:01:30;17.80;60.90
74101;DHT22;62462;52.530;21.682;2022-08-11T06:04:01;17.90;60.80
74101;DHT22;62462;52.530;21.682;2022-08-11T06:06:49;17.90;60.70
74101;DHT22;62462;52.530;21.682;2022-08-11T06:09:24;18.10;61.00
74101;DHT22;62462;52.530;21.682;2022-08-11T06:11:52;18.20;60.90
74101;DHT22;62462;52.530;21.682;2022-08-11T06:14:19;18.40;61.20
74101;DHT22;62462;52.530;21.682;2022-08-11T06:16:48;18.50;61.20
74101;DHT22;62462;52.530;21.682;2022-08-11T06:19:15;18.70;61.10
74101;DHT22;62462;52.530;21.682;2022-08-11T06:21:46;19.00;60.90
74101;DHT22;62462;52.530;21.682;2022-08-11T06:24:13;19.10;60.70
74101;DHT22;62462;52.530;21.682;2022-08-11T06:26:40;19.20;60.60
74101;DHT22;62462;52.530;21.682;2022-08-11T06:29:06;19.30;60.00
74101;DHT22;62462;52.530;21.682;2022-08-11T06:31:33;19.30;60.00
74101;DHT22;62462;52.530;21.682;2022-08-11T06:34:11;19.50;60.10
74101;DHT22;62462;52.530;21.682;2022-08-11T06:36:41;19.60;60.00
74101;DHT22;62462;52.530;21.682;2022-08-11T06:41:57;19.60;59.80
74101;DHT22;62462;52.530;21.682;2022-08-11T06:44:31;19.70;59.80
74101;DHT22;62462;52.530;21.682;2022-08-11T06:47:06;19.60;59.70
74101;DHT22;62462;52.530;21.682;2022-08-11T06:49:43;19.60;60.00
74101;DHT22;62462;52.530;21.682;2022-08-11T06:52:46;19.80;60.60
74101;DHT22;62462;52.530;21.682;2022-08-11T06:55:22;20.10;60.40
74101;DHT22;62462;52.530;21.682;2022-08-11T06:58:17;20.20;60.20
74101;DHT22;62462;52.530;21.682;2022-08-11T07:01:08;20.50;60.20
74101;DHT22;62462;52.530;21.682;2022-08-11T07:03:39;20.70;60.00
74101;DHT22;62462;52.530;21.682;2022-08-11T07:12:42;21.10;59.20
74101;DHT22;62462;52.530;21.682;2022-08-11T07:15:32;21.30;59.30
74101;DHT22;62462;52.530;21.682;2022-08-11T07:18:21;21.40;59.30
74101;DHT22;62462;52.530;21.682;2022-08-11T07:21:14;21.60;59.30
74101;DHT22;62462;52.530;21.682;2022-08-11T07:24:00;21.60;59.00
74101;DHT22;62462;52.530;21.682;2022-08-11T07:26:50;21.80;59.20
74101;DHT22;62462;52.530;21.682;2022-08-11T07:29:36;21.90;59.50
74101;DHT22;62462;52.530;21.682;2022-08-11T07:32:16;22.00;59.30
74101;DHT22;62462;52.530;21.682;2022-08-11T07:34:50;22.10;59.10
74101;DHT22;62462;52.530;21.682;2022-08-11T07:37:18;22.20;58.80
74101;DHT22;62462;52.530;21.682;2022-08-11T07:39:46;22.30;58.90
74101;DHT22;62462;52.530;21.682;2022-08-11T07:42:16;22.50;59.00
74101;DHT22;62462;52.530;21.682;2022-08-11T07:44:46;22.60;58.80
74101;DHT22;62462;52.530;21.682;2022-08-11T07:47:30;22.70;58.50
74101;DHT22;62462;52.530;21.682;2022-08-11T07:50:15;22.80;58.50
74101;DHT22;62462;52.530;21.682;2022-08-11T07:53:00;23.00;58.40
74101;DHT22;62462;52.530;21.682;2022-08-11T07:55:27;23.10;58.10
74101;DHT22;62462;52.530;21.682;2022-08-11T07:57:55;23.20;57.80
74101;DHT22;62462;52.530;21.682;2022-08-11T08:03:29;23.60;57.70
74101;DHT22;62462;52.530;21.682;2022-08-11T08:06:15;23.70;57.00
74101;DHT22;62462;52.530;21.682;2022-08-11T08:09:00;23.70;56.90
74101;DHT22;62462;52.530;21.682;2022-08-11T08:11:45;23.80;57.00
74101;DHT22;62462;52.530;21.682;2022-08-11T08:14:31;24.00;57.00
74101;DHT22;62462;52.530;21.682;2022-08-11T08:17:17;24.10;56.50
74101;DHT22;62462;52.530;21.682;2022-08-11T08:20:03;24.20;56.40
74101;DHT22;62462;52.530;21.682;2022-08-11T08:22:29;24.30;56.20
74101;DHT22;62462;52.530;21.682;2022-08-11T08:24:55;24.40;55.90
74101;DHT22;62462;52.530;21.682;2022-08-11T08:27:22;24.50;55.80
74101;DHT22;62462;52.530;21.682;2022-08-11T08:29:50;24.60;55.50
74101;DHT22;62462;52.530;21.682;2022-08-11T08:32:39;24.70;55.30
74101;DHT22;62462;52.530;21.682;2022-08-11T08:35:06;24.80;55.00
74101;DHT22;62462;52.530;21.682;2022-08-11T08:37:33;24.80;54.70
74101;DHT22;62462;52.530;21.682;2022-08-11T08:39:58;24.90;55.40
74101;DHT22;62462;52.530;21.682;2022-08-11T08:42:29;24.90;53.80
74101;DHT22;62462;52.530;21.682;2022-08-11T08:44:58;25.00;54.30
74101;DHT22;62462;52.530;21.682;2022-08-11T08:47:28;25.10;54.20
74101;DHT22;62462;52.530;21.682;2022-08-11T08:49:59;25.20;54.10
74101;DHT22;62462;52.530;21.682;2022-08-11T08:52:32;25.30;54.00
74101;DHT22;62462;52.530;21.682;2022-08-11T08:55:03;25.50;53.90
74101;DHT22;62462;52.530;21.682;2022-08-11T08:57:32;25.60;53.60
74101;DHT22;62462;52.530;21.682;2022-08-11T09:00:00;25.60;53.30
74101;DHT22;62462;52.530;21.682;2022-08-11T09:02:27;25.70;53.00
74101;DHT22;62462;52.530;21.682;2022-08-11T09:04:53;25.90;52.80
74101;DHT22;62462;52.530;21.682;2022-08-11T09:07:22;25.90;52.80
74101;DHT22;62462;52.530;21.682;2022-08-11T09:09:50;26.10;52.30
74101;DHT22;62462;52.530;21.682;2022-08-11T09:12:20;26.10;51.90
74101;DHT22;62462;52.530;21.682;2022-08-11T09:14:48;26.10;51.70
74101;DHT22;62462;52.530;21.682;2022-08-11T09:17:44;26.00;51.70
74101;DHT22;62462;52.530;21.682;2022-08-11T09:20:20;25.80;51.00
74101;DHT22;62462;52.530;21.682;2022-08-11T09:22:48;25.60;51.30
74101;DHT22;62462;52.530;21.682;2022-08-11T09:25:33;25.60;51.70
74101;DHT22;62462;52.530;21.682;2022-08-11T09:28:19;25.60;50.40
74101;DHT22;62462;52.530;21.682;2022-08-11T09:30:49;25.70;51.20
74101;DHT22;62462;52.530;21.682;2022-08-11T09:33:18;25.90;51.40
74101;DHT22;62462;52.530;21.682;2022-08-11T09:35:46;26.10;51.00
74101;DHT22;62462;52.530;21.682;2022-08-11T09:38:14;26.10;50.40
74101;DHT22;62462;52.530;21.682;2022-08-11T09:41:02;25.90;50.30
74101;DHT22;62462;52.530;21.682;2022-08-11T09:43:30;25.80;50.40
74101;DHT22;62462;52.530;21.682;2022-08-11T09:46:15;25.70;50.20
74101;DHT22;62462;52.530;21.682;2022-08-11T09:48:43;25.80;50.50
74101;DHT22;62462;52.530;21.682;2022-08-11T09:51:10;26.00;49.80
74101;DHT22;62462;52.530;21.682;2022-08-11T09:53:41;26.10;48.80
74101;DHT22;62462;52.530;21.682;2022-08-11T09:56:16;26.30;49.30
74101;DHT22;62462;52.530;21.682;2022-08-11T09:59:02;26.50;49.50
74101;DHT22;62462;52.530;21.682;2022-08-11T10:01:46;26.70;48.00
74101;DHT22;62462;52.530;21.682;2022-08-11T10:06:48;26.50;46.80
74101;DHT22;62462;52.530;21.682;2022-08-11T10:09:57;26.50;46.20
74101;DHT22;62462;52.530;21.682;2022-08-11T10:12:24;26.60;47.30
74101;DHT22;62462;52.530;21.682;2022-08-11T10:15:01;26.90;48.00
74101;DHT22;62462;52.530;21.682;2022-08-11T10:17:48;27.10;48.20
74101;DHT22;62462;52.530;21.682;2022-08-11T10:20:37;27.40;47.90
74101;DHT22;62462;52.530;21.682;2022-08-11T10:23:03;27.20;47.00
74101;DHT22;62462;52.530;21.682;2022-08-11T10:25:49;26.90;46.90
74101;DHT22;62462;52.530;21.682;2022-08-11T10:28:34;26.80;48.00
74101;DHT22;62462;52.530;21.682;2022-08-11T10:31:03;26.90;48.30
74101;DHT22;62462;52.530;21.682;2022-08-11T10:33:48;27.10;47.70
74101;DHT22;62462;52.530;21.682;2022-08-11T10:36:33;27.10;47.30
74101;DHT22;62462;52.530;21.682;2022-08-11T10:39:01;27.00;46.00
74101;DHT22;62462;52.530;21.682;2022-08-11T10:41:28;26.90;45.60
74101;DHT22;62462;52.530;21.682;2022-08-11T10:44:13;26.80;46.40
74101;DHT22;62462;52.530;21.682;2022-08-11T10:46:39;26.70;46.40
74101;DHT22;62462;52.530;21.682;2022-08-11T10:49:24;26.60;46.40
74101;DHT22;62462;52.530;21.682;2022-08-11T10:51:52;26.60;45.40
74101;DHT22;62462;52.530;21.682;2022-08-11T10:54:40;26.80;46.30
74101;DHT22;62462;52.530;21.682;2022-08-11T10:57:26;27.10;46.60
74101;DHT22;62462;52.530;21.682;2022-08-11T11:00:12;27.30;46.10
74101;DHT22;62462;52.530;21.682;2022-08-11T11:02:44;27.50;45.70
74101;DHT22;62462;52.530;21.682;2022-08-11T11:05:28;27.60;45.80
74101;DHT22;62462;52.530;21.682;2022-08-11T11:08:06;27.80;45.60
74101;DHT22;62462;52.530;21.682;2022-08-11T11:10:55;28.00;45.20
74101;DHT22;62462;52.530;21.682;2022-08-11T11:13:22;27.90;43.90
74101;DHT22;62462;52.530;21.682;2022-08-11T11:16:09;27.80;42.00
74101;DHT22;62462;52.530;21.682;2022-08-11T11:18:50;27.60;43.40
74101;DHT22;62462;52.530;21.682;2022-08-11T11:21:18;27.30;44.00
74101;DHT22;62462;52.530;21.682;2022-08-11T11:24:02;27.10;44.70
74101;DHT22;62462;52.530;21.682;2022-08-11T11:33:00;27.80;45.20
74101;DHT22;62462;52.530;21.682;2022-08-11T11:35:58;28.10;45.30
74101;DHT22;62462;52.530;21.682;2022-08-11T11:38:30;28.20;45.10
74101;DHT22;62462;52.530;21.682;2022-08-11T11:40:56;28.40;44.90
74101;DHT22;62462;52.530;21.682;2022-08-11T11:43:41;28.40;44.20
74101;DHT22;62462;52.530;21.682;2022-08-11T11:46:07;28.20;44.20
74101;DHT22;62462;52.530;21.682;2022-08-11T11:48:35;27.90;44.50
74101;DHT22;62462;52.530;21.682;2022-08-11T11:51:02;27.60;45.60
74101;DHT22;62462;52.530;21.682;2022-08-11T11:53:28;27.30;44.20
74101;DHT22;62462;52.530;21.682;2022-08-11T11:55:55;27.10;44.30
74101;DHT22;62462;52.530;21.682;2022-08-11T11:58:21;26.80;44.80
74101;DHT22;62462;52.530;21.682;2022-08-11T12:01:06;26.70;44.30
74101;DHT22;62462;52.530;21.682;2022-08-11T12:03:43;26.60;45.10
74101;DHT22;62462;52.530;21.682;2022-08-11T12:06:10;26.60;45.60
74101;DHT22;62462;52.530;21.682;2022-08-11T12:08:39;27.00;45.60
74101;DHT22;62462;52.530;21.682;2022-08-11T12:11:08;27.30;45.40
74101;DHT22;62462;52.530;21.682;2022-08-11T12:13:55;27.70;44.70
74101;DHT22;62462;52.530;21.682;2022-08-11T12:16:22;27.90;43.80
74101;DHT22;62462;52.530;21.682;2022-08-11T12:18:51;28.00;44.10
74101;DHT22;62462;52.530;21.682;2022-08-11T12:21:17;28.20;43.90
74101;DHT22;62462;52.530;21.682;2022-08-11T12:23:46;28.40;43.90
74101;DHT22;62462;52.530;21.682;2022-08-11T12:26:32;28.60;43.00
74101;DHT22;62462;52.530;21.682;2022-08-11T12:29:05;28.70;43.30
74101;DHT22;62462;52.530;21.682;2022-08-11T12:31:32;29.00;43.20
74101;DHT22;62462;52.530;21.682;2022-08-11T12:34:01;29.20;42.90
74101;DHT22;62462;52.530;21.682;2022-08-11T12:36:27;29.20;41.10
74101;DHT22;62462;52.530;21.682;2022-08-11T12:38:53;29.00;40.70
74101;DHT22;62462;52.530;21.682;2022-08-11T12:41:20;28.90;41.10
74101;DHT22;62462;52.530;21.682;2022-08-11T12:44:07;28.60;41.60
74101;DHT22;62462;52.530;21.682;2022-08-11T12:46:52;28.70;42.30
74101;DHT22;62462;52.530;21.682;2022-08-11T12:49:20;28.90;41.30
74101;DHT22;62462;52.530;21.682;2022-08-11T12:52:11;28.90;37.50
74101;DHT22;62462;52.530;21.682;2022-08-11T13:00:13;29.40;40.30
74101;DHT22;62462;52.530;21.682;2022-08-11T13:02:58;29.60;40.40
74101;DHT22;62462;52.530;21.682;2022-08-11T13:05:45;29.50;40.30
74101;DHT22;62462;52.530;21.682;2022-08-11T13:08:15;29.20;40.10
74101;DHT22;62462;52.530;21.682;2022-08-11T13:10:42;29.20;38.70
74101;DHT22;62462;52.530;21.682;2022-08-11T13:13:28;29.10;38.80
74101;DHT22;62462;52.530;21.682;2022-08-11T13:15:55;29.10;39.30
74101;DHT22;62462;52.530;21.682;2022-08-11T13:18:23;29.20;39.50
74101;DHT22;62462;52.530;21.682;2022-08-11T13:20:53;29.00;39.60
74101;DHT22;62462;52.530;21.682;2022-08-11T13:23:22;28.70;40.20
74101;DHT22;62462;52.530;21.682;2022-08-11T13:25:48;28.60;40.90
74101;DHT22;62462;52.530;21.682;2022-08-11T13:28:17;28.60;41.20
74101;DHT22;62462;52.530;21.682;2022-08-11T13:30:44;28.90;41.10
74101;DHT22;62462;52.530;21.682;2022-08-11T13:33:29;29.10;40.10
74101;DHT22;62462;52.530;21.682;2022-08-11T13:35:56;29.30;39.60
74101;DHT22;62462;52.530;21.682;2022-08-11T13:38:23;29.50;39.60
74101;DHT22;62462;52.530;21.682;2022-08-11T13:40:51;29.60;39.40
74101;DHT22;62462;52.530;21.682;2022-08-11T13:43:19;29.80;39.70
74101;DHT22;62462;52.530;21.682;2022-08-11T13:45:46;29.90;38.80
74101;DHT22;62462;52.530;21.682;2022-08-11T13:48:14;30.00;39.00
74101;DHT22;62462;52.530;21.682;2022-08-11T13:50:40;30.00;39.00
74101;DHT22;62462;52.530;21.682;2022-08-11T13:53:26;30.20;38.30
74101;DHT22;62462;52.530;21.682;2022-08-11T13:55:56;30.10;37.70
74101;DHT22;62462;52.530;21.682;2022-08-11T13:58:22;30.00;37.70
74101;DHT22;62462;52.530;21.682;2022-08-11T14:00:50;29.90;37.70
74101;DHT22;62462;52.530;21.682;2022-08-11T14:03:19;29.90;38.10
74101;DHT22;62462;52.530;21.682;2022-08-11T14:05:48;30.00;37.50
74101;DHT22;62462;52.530;21.682;2022-08-11T14:08:18;30.00;37.60
74101;DHT22;62462;52.530;21.682;2022-08-11T14:10:47;30.10;37.30
74101;DHT22;62462;52.530;21.682;2022-08-11T14:13:36;30.10;37.60
74101;DHT22;62462;52.530;21.682;2022-08-11T14:16:07;30.20;37.50
74101;DHT22;62462;52.530;21.682;2022-08-11T14:18:35;30.30;37.20
74101;DHT22;62462;52.530;21.682;2022-08-11T14:21:04;30.30;37.80
74101;DHT22;62462;52.530;21.682;2022-08-11T18:58:45;22.90;49.40
74101;DHT22;62462;52.530;21.682;2022-08-11T19:01:33;22.60;50.80
74101;DHT22;62462;52.530;21.682;2022-08-11T19:04:20;23.00;50.10
74101;DHT22;62462;52.530;21.682;2022-08-11T19:07:06;23.40;49.30
74101;DHT22;62462;52.530;21.682;2022-08-11T19:09:52;23.70;48.60
74101;DHT22;62462;52.530;21.682;2022-08-11T19:12:40;23.80;48.00
74101;DHT22;62462;52.530;21.682;2022-08-11T19:15:24;23.90;48.00
74101;DHT22;62462;52.530;21.682;2022-08-11T19:18:15;24.00;47.80
74101;DHT22;62462;52.530;21.682;2022-08-11T19:21:01;24.10;47.70
74101;DHT22;62462;52.530;21.682;2022-08-11T19:23:49;24.20;47.70
74101;DHT22;62462;52.530;21.682;2022-08-11T19:26:34;24.20;47.50
74101;DHT22;62462;52.530;21.682;2022-08-11T19:29:21;24.20;47.50
74101;DHT22;62462;52.530;21.682;2022-08-11T19:32:07;24.20;47.60
74101;DHT22;62462;52.530;21.682;2022-08-11T19:34:53;24.10;47.60
74101;DHT22;62462;52.530;21.682;2022-08-11T19:37:40;24.00;48.00
74101;DHT22;62462;52.530;21.682;2022-08-11T19:40:25;23.90;48.10
74101;DHT22;62462;52.530;21.682;2022-08-11T19:43:11;23.80;48.40
74101;DHT22;62462;52.530;21.682;2022-08-11T19:45:58;23.80;48.60
74101;DHT22;62462;52.530;21.682;2022-08-11T19:48:45;23.70;48.50
74101;DHT22;62462;52.530;21.682;2022-08-11T19:51:31;23.60;48.60
74101;DHT22;62462;52.530;21.682;2022-08-11T19:54:17;23.60;49.00
74101;DHT22;62462;52.530;21.682;2022-08-11T19:57:02;23.50;49.00
74101;DHT22;62462;52.530;21.682;2022-08-11T19:59:49;23.60;49.90
74101;DHT22;62462;52.530;21.682;2022-08-11T20:02:33;23.50;49.20
74101;DHT22;62462;52.530;21.682;2022-08-11T20:05:18;23.50;49.30
74101;DHT22;62462;52.530;21.682;2022-08-11T20:08:03;23.50;50.10
74101;DHT22;62462;52.530;21.682;2022-08-11T20:10:49;23.50;49.40
74101;DHT22;62462;52.530;21.682;2022-08-11T20:13:34;23.50;49.60
74101;DHT22;62462;52.530;21.682;2022-08-11T20:16:21;23.50;49.60
74101;DHT22;62462;52.530;21.682;2022-08-11T20:19:06;23.50;49.60
74101;DHT22;62462;52.530;21.682;2022-08-11T20:21:53;23.50;49.70
74101;DHT22;62462;52.530;21.682;2022-08-11T20:24:39;23.40;49.70
74101;DHT22;62462;52.530;21.682;2022-08-11T20:27:25;23.40;49.80
74101;DHT22;62462;52.530;21.682;2022-08-11T20:30:10;23.40;49.80
74101;DHT22;62462;52.530;21.682;2022-08-11T20:32:54;23.30;50.20
74101;DHT22;62462;52.530;21.682;2022-08-11T20:35:39;23.20;50.20
74101;DHT22;62462;52.530;21.682;2022-08-11T20:38:29;23.10;50.50
74101;DHT22;62462;52.530;21.682;2022-08-11T20:41:14;23.20;50.70
74101;DHT22;62462;52.530;21.682;2022-08-11T20:44:00;23.20;50.70
74101;DHT22;62462;52.530;21.682;2022-08-11T20:46:46;23.20;50.70
74101;DHT22;62462;52.530;21.682;2022-08-11T20:49:32;23.20;51.40
74101;DHT22;62462;52.530;21.682;2022-08-11T20:52:18;23.10;50.60
74101;DHT22;62462;52.530;21.682;2022-08-11T20:55:05;23.00;50.90
74101;DHT22;62462;52.530;21.682;2022-08-11T20:57:51;23.10;51.00
74101;DHT22;62462;52.530;21.682;2022-08-11T21:00:36;23.00;50.90
74101;DHT22;62462;52.530;21.682;2022-08-11T21:03:21;22.90;51.20
74101;DHT22;62462;52.530;21.682;2022-08-11T21:06:05;22.80;51.50
74101;DHT22;62462;52.530;21.682;2022-08-11T21:08:51;22.80;51.70
74101;DHT22;62462;52.530;21.682;2022-08-11T21:11:37;22.80;51.60
74101;DHT22;62462;52.530;21.682;2022-08-11T21:14:23;22.80;51.70
74101;DHT22;62462;52.530;21.682;2022-08-11T21:17:08;22.80;51.80
74101;DHT22;62462;52.530;21.682;2022-08-11T21:19:57;22.80;51.80
74101;DHT22;62462;52.530;21.682;2022-08-11T21:22:50;22.70;51.90
74101;DHT22;62462;52.530;21.682;2022-08-11T21:25:42;22.70;51.90
74101;DHT22;62462;52.530;21.682;2022-08-11T21:28:27;22.70;52.00
74101;DHT22;62462;52.530;21.682;2022-08-11T21:31:13;22.70;51.80
74101;DHT22;62462;52.530;21.682;2022-08-11T21:33:58;22.70;52.00
74101;DHT22;62462;52.530;21.682;2022-08-11T21:36:44;22.70;52.00
74101;DHT22;62462;52.530;21.682;2022-08-11T21:39:29;22.70;52.10
74101;DHT22;62462;52.530;21.682;2022-08-11T21:42:14;22.60;52.00
74101;DHT22;62462;52.530;21.682;2022-08-11T21:45:01;22.70;52.00
74101;DHT22;62462;52.530;21.682;2022-08-11T21:47:47;22.70;52.00
74101;DHT22;62462;52.530;21.682;2022-08-11T21:50:32;22.70;52.00
74101;DHT22;62462;52.530;21.682;2022-08-11T21:53:17;22.70;51.90
74101;DHT22;62462;52.530;21.682;2022-08-11T21:56:02;22.70;52.10
74101;DHT22;62462;52.530;21.682;2022-08-11T21:58:47;22.70;51.90
74101;DHT22;62462;52.530;21.682;2022-08-11T22:01:32;22.70;52.10
74101;DHT22;62462;52.530;21.682;2022-08-11T22:04:18;22.70;52.00
74101;DHT22;62462;52.530;21.682;2022-08-11T22:07:03;22.70;51.90
74101;DHT22;62462;52.530;21.682;2022-08-11T22:09:47;22.70;51.80
74101;DHT22;62462;52.530;21.682;2022-08-11T22:12:32;22.70;51.70
74101;DHT22;62462;52.530;21.682;2022-08-11T22:15:17;22.80;51.70
74101;DHT22;62462;52.530;21.682;2022-08-11T22:18:01;22.80;51.60
74101;DHT22;62462;52.530;21.682;2022-08-11T22:20:46;22.70;51.80
74101;DHT22;62462;52.530;21.682;2022-08-11T22:23:35;22.70;51.80
74101;DHT22;62462;52.530;21.682;2022-08-11T22:26:20;22.60;51.90
74101;DHT22;62462;52.530;21.682;2022-08-11T22:29:06;22.70;51.90
74101;DHT22;62462;52.530;21.682;2022-08-11T22:31:52;22.70;51.80
74101;DHT22;62462;52.530;21.682;2022-08-11T22:34:38;22.70;51.80
74101;DHT22;62462;52.530;21.682;2022-08-11T22:37:24;22.70;51.60
74101;DHT22;62462;52.530;21.682;2022-08-11T22:40:09;22.70;51.60
74101;DHT22;62462;52.530;21.682;2022-08-11T22:42:55;22.70;51.70
74101;DHT22;62462;52.530;21.682;2022-08-11T22:45:39;22.70;51.80
74101;DHT22;62462;52.530;21.682;2022-08-11T22:48:26;22.60;51.70
74101;DHT22;62462;52.530;21.682;2022-08-11T22:51:11;22.70;51.60
74101;DHT22;62462;52.530;21.682;2022-08-11T22:53:57;22.60;51.60
74101;DHT22;62462;52.530;21.682;2022-08-11T22:56:43;22.70;51.70
74101;DHT22;62462;52.530;21.682;2022-08-11T22:59:28;22.70;51.60
74101;DHT22;62462;52.530;21.682;2022-08-11T23:02:13;22.60;51.50
74101;DHT22;62462;52.530;21.682;2022-08-11T23:04:58;22.70;51.60
74101;DHT22;62462;52.530;21.682;2022-08-11T23:07:44;22.60;51.50
74101;DHT22;62462;52.530;21.682;2022-08-11T23:10:29;22.60;51.50
74101;DHT22;62462;52.530;21.682;2022-08-11T23:13:14;22.60;51.50
74101;DHT22;62462;52.530;21.682;2022-08-11T23:15:59;22.60;51.70
74101;DHT22;62462;52.530;21.682;2022-08-11T23:18:44;22.60;51.70
74101;DHT22;62462;52.530;21.682;2022-08-11T23:21:28;22.60;51.50
74101;DHT22;62462;52.530;21.682;2022-08-11T23:24:14;22.60;51.50
74101;DHT22;62462;52.530;21.682;2022-08-11T23:26:59;22.60;51.70
74101;DHT22;62462;52.530;21.682;2022-08-11T23:29:46;22.60;51.50
74101;DHT22;62462;52.530;21.682;2022-08-11T23:32:31;22.70;51.50
74101;DHT22;62462;52.530;21.682;2022-08-11T23:35:17;22.70;51.30
74101;DHT22;62462;52.530;21.682;2022-08-11T23:38:02;22.70;51.30
74101;DHT22;62462;52.530;21.682;2022-08-11T23:40:47;22.60;51.40
74101;DHT22;62462;52.530;21.682;2022-08-11T23:43:31;22.60;51.40
74101;DHT22;62462;52.530;21.682;2022-08-11T23:46:19;22.60;51.30
74101;DHT22;62462;52.530;21.682;2022-08-11T23:49:03;22.60;51.40
74101;DHT22;62462;52.530;21.682;2022-08-11T23:51:48;22.60;51.50
74101;DHT22;62462;52.530;21.682;2022-08-11T23:54:34;22.60;51.50
74101;DHT22;62462;52.530;21.682;2022-08-11T23:57:19;22.50;51.50
